createdAt,value
2023-07-14T00:00:09.688Z,19.32
2023-07-14T00:05:22.551Z,20.78
2023-07-14T00:10:35.189Z,20.81
2023-07-14T00:15:41.684Z,20.57
2023-07-14T00:20:45.291Z,19.83
2023-07-14T00:25:48.844Z,19.78
2023-07-14T00:30:53.015Z,18.92
2023-07-14T00:35:56.538Z,19.85
2023-07-14T00:41:02.464Z,20.42
2023-07-14T00:46:06.289Z,20.08
2023-07-14T00:51:16.111Z,20.02
2023-07-14T00:56:39.764Z,19.82
2023-07-14T01:02:21.181Z,19.76
2023-07-14T01:07:31.666Z,19.50
2023-07-14T01:12:37.884Z,20.29
2023-07-14T01:17:42.384Z,20.11
2023-07-14T01:23:04.477Z,20.02
2023-07-14T01:28:13.943Z,19.89
2023-07-14T01:33:19.406Z,19.83
2023-07-14T01:38:24.678Z,19.83
2023-07-14T01:43:28.585Z,19.40
2023-07-14T01:48:38.759Z,19.68
2023-07-14T01:53:47.151Z,18.76
2023-07-14T01:59:13.124Z,18.88
2023-07-14T02:04:25.439Z,18.59
2023-07-14T02:09:30.987Z,19.07
2023-07-14T02:15:01.892Z,17.38
2023-07-14T02:20:13.016Z,18.66
2023-07-14T02:25:19.700Z,19.16
2023-07-14T02:30:25.367Z,18.33
2023-07-14T02:35:46.364Z,18.63
2023-07-14T02:40:54.228Z,19.19
2023-07-14T02:45:59.584Z,19.78
2023-07-14T02:51:04.571Z,20.07
2023-07-14T02:56:08.405Z,20.22
2023-07-14T03:01:11.866Z,19.64
2023-07-14T03:06:17.477Z,20.43
2023-07-14T03:11:20.901Z,19.62
2023-07-14T03:16:24.331Z,18.82
2023-07-14T03:21:27.727Z,19.90
2023-07-14T03:26:31.064Z,18.67
2023-07-14T03:31:34.927Z,20.00
2023-07-14T03:36:39.698Z,20.63
2023-07-14T03:41:43.197Z,20.44
2023-07-14T03:46:47.736Z,20.77
2023-07-14T03:51:51.679Z,20.55
2023-07-14T03:56:55.274Z,20.60
2023-07-14T04:01:59.010Z,18.93
2023-07-14T04:07:02.701Z,20.81
2023-07-14T04:12:07.465Z,20.05
2023-07-14T04:17:11.015Z,20.47
2023-07-14T04:22:14.574Z,19.62
2023-07-14T04:27:18.242Z,20.25
2023-07-14T04:32:21.931Z,21.07
2023-07-14T04:37:25.440Z,20.49
2023-07-14T04:42:29.074Z,20.60
2023-07-14T04:47:32.493Z,21.18
2023-07-14T04:52:36.154Z,21.16
2023-07-14T04:57:39.592Z,21.45
2023-07-14T05:02:43.155Z,21.52
2023-07-14T05:07:46.999Z,21.65
2023-07-14T05:12:55.451Z,21.67
2023-07-14T05:17:58.956Z,21.36
2023-07-14T05:23:02.808Z,21.69
2023-07-14T05:28:06.800Z,21.72
2023-07-14T05:33:11.757Z,21.74
2023-07-14T05:38:17.732Z,21.88
2023-07-14T05:43:21.532Z,22.01
2023-07-14T05:48:25.060Z,21.86
2023-07-14T05:53:29.240Z,22.07
2023-07-14T05:58:32.812Z,22.17
2023-07-14T06:03:36.330Z,20.64
2023-07-14T06:08:40.548Z,21.66
2023-07-14T06:13:43.887Z,22.45
2023-07-14T06:18:47.355Z,22.33
2023-07-14T06:23:51.077Z,21.52
2023-07-14T06:28:54.733Z,23.02
2023-07-14T06:33:58.390Z,22.63
2023-07-14T06:39:02.407Z,23.22
2023-07-14T06:44:19.664Z,23.25
2023-07-14T06:49:29.253Z,23.60
2023-07-14T06:54:32.947Z,23.95
2023-07-14T06:59:36.660Z,22.64
2023-07-14T07:04:40.079Z,23.37
2023-07-14T07:09:43.576Z,23.71
2023-07-14T07:14:47.090Z,24.26
2023-07-14T07:19:52.477Z,24.35
2023-07-14T07:24:56.103Z,24.83
2023-07-14T07:30:00.369Z,24.53
2023-07-14T07:35:05.143Z,24.00
2023-07-14T07:40:10.167Z,25.04
2023-07-14T07:45:13.898Z,24.75
2023-07-14T07:50:17.429Z,25.11
2023-07-14T07:55:21.273Z,25.49
2023-07-14T08:00:24.662Z,25.95
2023-07-14T08:05:28.085Z,25.87
2023-07-14T08:10:31.846Z,26.08
2023-07-14T08:15:35.062Z,26.57
2023-07-14T08:20:39.527Z,25.86
2023-07-14T08:25:43.973Z,26.56
2023-07-14T08:30:49.308Z,26.17
2023-07-14T08:35:54.347Z,26.13
2023-07-14T08:41:28.509Z,26.70
2023-07-14T08:46:45.032Z,25.08
2023-07-14T08:52:11.865Z,26.79
2023-07-14T08:57:22.581Z,27.18
2023-07-14T09:02:49.467Z,27.56
2023-07-14T09:07:53.977Z,27.17
2023-07-14T09:13:10.269Z,27.32
2023-07-14T09:18:21.847Z,28.43
2023-07-14T09:23:47.614Z,28.57
2023-07-14T09:28:54.008Z,28.17
2023-07-14T09:34:03.948Z,29.11
2023-07-14T09:39:16.307Z,29.06
2023-07-14T09:44:19.767Z,28.49
2023-07-14T09:49:47.444Z,29.22
2023-07-14T09:54:58.164Z,29.41
2023-07-14T10:00:13.385Z,29.29
2023-07-14T10:05:36.533Z,29.70
2023-07-14T10:10:44.462Z,30.21
2023-07-14T10:15:55.584Z,29.66
2023-07-14T10:21:08.018Z,29.68
2023-07-14T11:40:39.196Z,29.88
2023-07-14T11:45:43.710Z,30.26
2023-07-14T11:50:47.813Z,29.89
2023-07-14T11:55:54.338Z,30.26
2023-07-14T12:01:26.327Z,30.84
2023-07-14T12:06:50.889Z,29.92
2023-07-14T12:16:48.897Z,30.45
2023-07-14T12:22:07.302Z,31.13
2023-07-14T12:27:23.360Z,31.07
2023-07-14T12:32:27.139Z,30.13
2023-07-14T12:37:35.246Z,30.04
2023-07-14T12:42:43.265Z,29.61
2023-07-14T12:47:50.213Z,30.48
2023-07-14T12:52:53.949Z,29.56
2023-07-14T12:57:58.446Z,29.93
2023-07-14T13:03:04.221Z,30.45
2023-07-14T13:08:12.746Z,29.71
2023-07-14T13:13:22.100Z,30.57
2023-07-14T13:18:29.444Z,30.56
2023-07-14T13:23:37.164Z,30.83
2023-07-14T13:28:55.486Z,30.80
2023-07-14T13:33:59.585Z,30.45
2023-07-14T13:39:15.780Z,31.10
2023-07-14T13:49:08.269Z,30.44
2023-07-14T13:54:18.455Z,31.06
2023-07-14T13:59:22.307Z,30.54
2023-07-14T14:04:25.663Z,30.62
2023-07-14T14:09:29.954Z,30.53
2023-07-14T14:14:33.491Z,30.58
2023-07-14T14:43:29.254Z,30.40
2023-07-14T14:48:41.036Z,30.66
2023-07-14T14:58:33.293Z,31.10
2023-07-14T15:03:37.054Z,31.23
2023-07-14T15:08:40.795Z,30.93
2023-07-14T15:42:14.763Z,31.37
2023-07-14T15:56:59.876Z,31.45
2023-07-14T16:02:03.317Z,29.34
2023-07-14T16:07:06.942Z,29.75
2023-07-14T16:12:15.681Z,30.56
2023-07-14T16:17:19.150Z,30.34
2023-07-14T16:50:58.206Z,30.79
2023-07-14T16:56:01.596Z,30.00
2023-07-14T17:01:05.734Z,30.92
2023-07-14T17:20:30.679Z,31.11
2023-07-14T17:25:38.152Z,31.06
2023-07-14T17:30:42.213Z,31.57
2023-07-14T17:35:47.365Z,32.14
2023-07-14T17:40:50.795Z,32.49
2023-07-14T17:45:54.473Z,32.52
2023-07-14T17:55:44.410Z,32.13
2023-07-14T18:10:20.101Z,31.36
2023-07-14T18:15:34.127Z,31.14
2023-07-14T18:20:38.131Z,30.45
2023-07-14T18:25:41.524Z,30.15
2023-07-14T18:30:48.370Z,29.07
2023-07-14T18:35:59.639Z,27.46
2023-07-14T18:41:03.212Z,28.07
2023-07-14T18:46:08.880Z,28.14
2023-07-14T18:51:24.840Z,26.76
2023-07-14T18:56:29.365Z,26.69
2023-07-14T19:01:34.028Z,25.83
2023-07-14T19:06:37.487Z,26.33
2023-07-14T19:11:43.729Z,25.40
2023-07-14T19:16:47.490Z,25.95
2023-07-14T19:21:53.171Z,25.22
2023-07-14T19:26:56.605Z,24.76
2023-07-14T19:32:00.861Z,24.99
2023-07-14T19:37:04.516Z,24.32
2023-07-14T19:42:18.749Z,24.69
2023-07-14T19:47:22.037Z,23.52
2023-07-14T19:52:25.436Z,23.68
2023-07-14T19:57:28.748Z,24.36
2023-07-14T20:02:32.137Z,23.83
2023-07-14T20:07:35.505Z,23.25
2023-07-14T20:12:38.786Z,23.09
2023-07-14T20:17:43.285Z,21.91
2023-07-14T20:22:51.333Z,22.97
2023-07-14T20:27:54.702Z,22.61
2023-07-14T20:32:58.023Z,22.56
2023-07-14T20:38:03.039Z,22.06
2023-07-14T20:43:18.424Z,22.82
2023-07-14T20:48:25.264Z,22.49
2023-07-14T20:53:33.365Z,22.41
2023-07-14T20:58:36.703Z,22.26
2023-07-14T21:03:40.484Z,22.65
2023-07-14T21:08:44.191Z,22.47
2023-07-14T21:13:53.676Z,21.70
2023-07-14T21:18:57.493Z,21.19
2023-07-14T21:24:01.437Z,21.53
2023-07-14T21:29:06.568Z,21.65
2023-07-14T21:34:18.698Z,21.40
2023-07-14T21:39:25.645Z,20.93
2023-07-14T21:44:29.040Z,21.22
2023-07-14T21:49:33.745Z,21.10
2023-07-14T21:54:37.094Z,20.98
2023-07-14T21:59:40.738Z,21.73
2023-07-14T22:04:44.251Z,20.85
2023-07-14T22:09:48.663Z,21.60
2023-07-14T22:14:52.060Z,21.08
2023-07-14T22:19:55.478Z,20.21
2023-07-14T22:24:58.855Z,20.65
2023-07-14T22:30:02.252Z,20.62
2023-07-14T22:35:11.524Z,20.96
2023-07-14T22:40:17.461Z,21.21
2023-07-14T22:45:21.060Z,20.17
2023-07-14T22:50:25.442Z,20.26
2023-07-14T22:55:28.782Z,20.36
2023-07-14T23:00:32.240Z,20.41
2023-07-14T23:05:35.597Z,19.64
2023-07-14T23:10:47.195Z,20.37
2023-07-14T23:15:50.733Z,20.09
2023-07-14T23:21:02.244Z,19.88
2023-07-14T23:26:05.691Z,19.68
2023-07-14T23:31:18.476Z,20.47
2023-07-14T23:36:23.623Z,20.76
2023-07-14T23:41:31.409Z,19.71
2023-07-14T23:46:36.045Z,19.15
2023-07-14T23:51:40.419Z,19.95
2023-07-14T23:56:44.061Z,19.77
